Time;durP1;ratioP1;P1;durP2;ratioP2;P2;SDS_P1;SDS_P2;PMS_P1;PMS_P2;Temp;Humidity;BMP_temperature;BMP_pressure;BME280_temperature;BME280_humidity;BME280_pressure;Samples;Min_cycle;Max_cycle;Signal;HPM_P1;HPM_P2
2022/06/25 00:01:32;;;;;;;30.17;24.90;;;17.70;99.90;;;;;;5135495;27;20062;-69
2022/06/25 00:03:59;;;;;;;26.60;23.55;;;17.60;99.90;;;;;;5152936;27;20042;-69
2022/06/25 00:06:26;;;;;;;28.17;25.17;;;17.60;99.90;;;;;;5153368;27;20486;-68
2022/06/25 00:08:56;;;;;;;28.10;25.08;;;17.60;99.90;;;;;;5135883;27;20131;-69
2022/06/25 00:14:10;;;;;;;29.35;25.77;;;17.50;99.90;;;;;;5135295;27;20144;-68
2022/06/25 00:16:37;;;;;;;32.42;26.05;;;17.40;99.90;;;;;;5135707;27;20455;-69
2022/06/25 00:19:05;;;;;;;33.33;26.45;;;17.50;99.90;;;;;;5153207;27;20046;-69
2022/06/25 00:21:32;;;;;;;30.83;26.38;;;17.40;99.90;;;;;;5135235;27;20115;-69
2022/06/25 00:23:59;;;;;;;31.77;27.02;;;17.40;99.90;;;;;;5135278;27;20046;-68
2022/06/25 00:26:27;;;;;;;29.60;25.60;;;17.40;99.90;;;;;;5132073;28;20051;-70
2022/06/25 00:28:54;;;;;;;32.05;28.33;;;17.30;99.90;;;;;;5114877;28;20055;-69
2022/06/25 00:31:22;;;;;;;30.45;27.08;;;17.30;99.90;;;;;;5133166;28;20076;-69
2022/06/25 00:33:49;;;;;;;32.00;27.00;;;17.30;99.90;;;;;;5114748;28;20478;-69
2022/06/25 00:36:16;;;;;;;32.33;27.10;;;17.30;99.90;;;;;;5115112;28;20055;-69
2022/06/25 00:38:43;;;;;;;33.20;28.33;;;17.30;99.90;;;;;;5144094;27;20034;-69
2022/06/25 00:41:10;;;;;;;31.73;27.33;;;17.30;99.90;;;;;;5113476;28;20112;-68
2022/06/25 00:43:40;;;;;;;35.70;29.50;;;17.20;99.90;;;;;;5136265;27;20055;-69
2022/06/25 00:46:07;;;;;;;33.28;28.55;;;17.20;99.90;;;;;;5157716;27;20047;-69
2022/06/25 00:48:35;;;;;;;34.00;28.50;;;17.20;99.90;;;;;;5138618;27;20076;-68
2022/06/25 00:51:05;;;;;;;36.70;29.30;;;17.20;99.90;;;;;;5139303;27;20539;-69
2022/06/25 00:53:33;;;;;;;35.33;28.10;;;17.20;99.90;;;;;;5134865;27;20490;-68
2022/06/25 00:56:01;;;;;;;36.05;30.10;;;17.20;99.90;;;;;;5135213;27;20452;-69
2022/06/25 00:58:32;;;;;;;36.92;29.02;;;17.10;99.90;;;;;;5136195;27;20039;-69
2022/06/25 01:01:00;;;;;;;35.00;29.35;;;17.20;99.90;;;;;;5136120;27;20047;-69
2022/06/25 01:03:27;;;;;;;35.90;29.38;;;17.10;99.90;;;;;;5117647;27;20156;-69
2022/06/25 01:05:56;;;;;;;35.63;28.38;;;17.00;99.90;;;;;;5136751;27;20096;-69
2022/06/25 01:08:24;;;;;;;34.13;28.30;;;17.10;99.90;;;;;;5118089;27;20447;-69
2022/06/25 01:10:51;;;;;;;38.03;29.60;;;17.10;99.90;;;;;;5135870;27;20051;-69
2022/06/25 01:13:21;;;;;;;35.50;29.08;;;17.10;99.90;;;;;;5136639;27;20503;-69
2022/06/25 01:15:48;;;;;;;37.92;29.50;;;17.10;99.90;;;;;;5124609;27;20047;-69
2022/06/25 01:18:15;;;;;;;37.47;29.60;;;17.10;99.90;;;;;;5156384;27;20068;-69
2022/06/25 01:20:43;;;;;;;34.03;28.60;;;17.00;99.90;;;;;;5133235;27;20514;-69
2022/06/25 01:23:12;;;;;;;37.88;30.15;;;17.00;99.90;;;;;;5117189;27;20137;-69
2022/06/25 01:25:40;;;;;;;36.03;28.02;;;17.00;99.90;;;;;;5117701;27;20495;-69
2022/06/25 01:28:08;;;;;;;35.35;27.65;;;17.00;99.90;;;;;;5135981;27;20047;-68
2022/06/25 01:30:35;;;;;;;36.28;27.85;;;17.00;99.90;;;;;;5136155;27;20047;-68
2022/06/25 01:33:02;;;;;;;31.52;27.70;;;17.00;99.90;;;;;;5134921;27;20055;-67
2022/06/25 01:35:29;;;;;;;30.92;26.00;;;16.90;99.90;;;;;;5117510;27;20379;-69
2022/06/25 01:37:56;;;;;;;37.55;27.90;;;17.00;99.90;;;;;;5141985;27;20479;-68
2022/06/25 01:40:24;;;;;;;32.90;26.48;;;16.90;99.90;;;;;;5138310;27;20066;-68
2022/06/25 01:43:00;;;;;;;33.75;28.10;;;16.90;99.90;;;;;;5137603;27;20049;-68
2022/06/25 01:45:27;;;;;;;32.53;27.80;;;16.90;99.90;;;;;;5137651;27;20510;-68
2022/06/25 01:47:55;;;;;;;33.05;26.50;;;16.90;99.90;;;;;;5117653;27;20546;-68
2022/06/25 01:50:22;;;;;;;37.45;27.42;;;16.80;99.90;;;;;;5135557;27;20551;-68
2022/06/25 01:52:49;;;;;;;35.10;26.75;;;16.80;99.90;;;;;;5134939;27;20047;-67
2022/06/25 01:55:17;;;;;;;33.17;26.15;;;16.80;99.90;;;;;;5135454;27;20058;-68
2022/06/25 01:57:46;;;;;;;31.92;26.33;;;16.80;99.90;;;;;;5135432;27;20096;-69
2022/06/25 02:00:16;;;;;;;32.08;25.02;;;16.70;99.90;;;;;;5134686;27;20051;-69
2022/06/25 02:02:43;;;;;;;31.30;25.00;;;16.70;99.90;;;;;;5135589;27;20083;-68
2022/06/25 02:05:12;;;;;;;30.13;24.58;;;16.80;99.90;;;;;;5147297;27;20454;-68
2022/06/25 02:07:39;;;;;;;31.48;23.73;;;16.70;99.90;;;;;;5137746;27;20100;-67
2022/06/25 02:10:07;;;;;;;30.25;24.27;;;16.80;99.90;;;;;;5137718;27;20058;-67
2022/06/25 02:12:34;;;;;;;28.58;21.85;;;16.70;99.90;;;;;;5137164;27;20058;-68
2022/06/25 02:15:02;;;;;;;29.02;22.65;;;16.70;99.90;;;;;;5155806;27;20072;-68
2022/06/25 02:17:29;;;;;;;31.27;22.13;;;16.70;99.90;;;;;;5137449;27;20153;-68
2022/06/25 02:19:56;;;;;;;28.23;22.42;;;16.80;99.90;;;;;;5154952;27;20047;-69
2022/06/25 02:22:23;;;;;;;25.05;21.20;;;16.70;99.90;;;;;;5156073;27;20046;-69
2022/06/25 02:24:52;;;;;;;23.98;20.75;;;16.70;99.90;;;;;;5135728;27;20057;-69
2022/06/25 02:27:19;;;;;;;26.13;22.27;;;16.70;99.90;;;;;;5116309;27;20104;-68
2022/06/25 02:29:45;;;;;;;27.13;21.73;;;16.70;99.90;;;;;;5135225;27;20125;-69
2022/06/25 02:32:14;;;;;;;25.13;20.25;;;16.60;99.90;;;;;;5116413;27;20050;-69
2022/06/25 02:34:40;;;;;;;22.45;19.38;;;16.70;99.90;;;;;;5124060;27;20092;-69
2022/06/25 02:37:07;;;;;;;21.98;19.17;;;16.60;99.90;;;;;;5137376;27;20111;-68
2022/06/25 02:39:34;;;;;;;22.42;19.48;;;16.60;99.90;;;;;;5136835;27;20058;-69
2022/06/25 02:42:01;;;;;;;22.90;20.13;;;16.60;99.90;;;;;;5154951;27;20424;-68
2022/06/25 02:44:28;;;;;;;22.98;19.05;;;16.60;99.90;;;;;;5133321;27;20062;-68
2022/06/25 02:46:55;;;;;;;26.38;20.80;;;16.60;99.90;;;;;;5134571;27;20051;-69
2022/06/25 02:49:23;;;;;;;25.65;20.05;;;16.60;99.90;;;;;;5122586;27;20043;-68
2022/06/25 02:51:50;;;;;;;25.23;20.35;;;16.50;99.90;;;;;;5154963;27;20549;-69
2022/06/25 02:54:17;;;;;;;24.73;20.85;;;16.60;99.90;;;;;;5135986;27;20051;-68
2022/06/25 02:59:28;;;;;;;23.00;18.80;;;16.50;99.90;;;;;;5136493;27;20486;-70
2022/06/25 03:01:55;;;;;;;23.33;19.58;;;16.50;99.90;;;;;;5149114;27;20043;-68
2022/06/25 03:04:25;;;;;;;23.13;18.95;;;16.40;99.90;;;;;;5116020;27;20138;-68
2022/06/25 03:06:52;;;;;;;23.40;19.80;;;16.40;99.90;;;;;;5114461;27;20134;-68
2022/06/25 03:09:19;;;;;;;22.33;19.40;;;16.40;99.90;;;;;;5114986;27;20051;-68
2022/06/25 03:11:46;;;;;;;22.00;18.85;;;16.40;99.90;;;;;;5115056;27;20057;-69
2022/06/25 03:14:13;;;;;;;22.15;18.52;;;16.40;99.90;;;;;;5104877;27;20057;-69
2022/06/25 03:16:40;;;;;;;22.20;18.08;;;16.40;99.90;;;;;;5125697;27;20062;-69
2022/06/25 03:19:07;;;;;;;22.55;17.75;;;16.30;99.90;;;;;;5154739;27;20092;-69
2022/06/25 03:21:36;;;;;;;22.48;18.58;;;16.30;99.90;;;;;;5153479;27;20454;-68
2022/06/25 03:24:03;;;;;;;21.27;18.08;;;16.30;99.90;;;;;;5153172;27;20539;-68
2022/06/25 03:26:30;;;;;;;21.88;16.70;;;16.30;99.90;;;;;;5153574;27;20489;-69
2022/06/25 03:28:58;;;;;;;21.13;16.92;;;16.30;99.90;;;;;;5144066;27;20505;-69
2022/06/25 03:31:25;;;;;;;20.02;16.77;;;16.30;99.90;;;;;;5154170;27;20054;-69
2022/06/25 03:33:52;;;;;;;19.25;16.25;;;16.40;99.90;;;;;;5154471;27;20050;-68
2022/06/25 03:36:19;;;;;;;20.60;16.27;;;16.40;99.90;;;;;;5135607;27;20095;-69
2022/06/25 03:38:47;;;;;;;17.73;14.82;;;16.40;99.90;;;;;;5154641;27;20039;-70
2022/06/25 03:43:59;;;;;;;20.65;15.13;;;16.40;99.90;;;;;;5127186;27;20049;-68
2022/06/25 03:46:26;;;;;;;17.75;15.75;;;16.40;99.90;;;;;;5136076;27;20111;-68
2022/06/25 03:48:52;;;;;;;19.00;15.00;;;16.40;99.90;;;;;;5153893;27;20091;-68
2022/06/25 03:51:19;;;;;;;16.00;13.85;;;16.40;99.90;;;;;;5154071;27;20106;-69
2022/06/25 03:53:48;;;;;;;21.67;14.70;;;16.40;99.90;;;;;;5136079;27;20062;-69
2022/06/25 03:56:15;;;;;;;16.48;13.98;;;16.40;99.90;;;;;;5131779;28;20058;-69
2022/06/25 03:58:42;;;;;;;15.10;13.43;;;16.40;99.90;;;;;;5133111;28;20088;-69
2022/06/25 04:01:09;;;;;;;17.20;14.65;;;16.40;99.90;;;;;;5115237;28;20557;-68
2022/06/25 04:03:35;;;;;;;16.70;14.00;;;16.50;99.90;;;;;;5115226;28;20092;-69
2022/06/25 04:06:03;;;;;;;15.77;13.80;;;16.50;99.90;;;;;;5114802;28;20054;-69
2022/06/25 04:08:30;;;;;;;15.88;13.80;;;16.50;99.90;;;;;;5115405;28;20452;-69
2022/06/25 04:10:58;;;;;;;15.30;13.68;;;16.50;99.90;;;;;;5133350;28;20055;-69
2022/06/25 04:13:25;;;;;;;17.80;13.30;;;16.50;99.90;;;;;;5114774;28;20058;-70
2022/06/25 04:15:52;;;;;;;15.18;13.07;;;16.60;99.90;;;;;;5140570;27;20542;-70
2022/06/25 04:18:20;;;;;;;13.80;12.40;;;16.50;99.90;;;;;;5157354;27;20046;-69
2022/06/25 04:20:48;;;;;;;13.52;11.85;;;16.60;99.90;;;;;;5157653;27;20494;-69
2022/06/25 04:23:14;;;;;;;15.13;13.52;;;16.60;99.90;;;;;;5135492;27;20547;-70
2022/06/25 04:25:41;;;;;;;15.50;13.65;;;16.60;99.90;;;;;;5136389;27;20491;-68
2022/06/25 04:30:54;;;;;;;15.48;11.93;;;16.70;99.90;;;;;;5135979;27;20133;-69
2022/06/25 04:33:21;;;;;;;14.18;11.63;;;16.70;99.90;;;;;;5118723;27;20399;-69
2022/06/25 04:35:48;;;;;;;14.38;11.90;;;16.70;99.90;;;;;;5118867;27;20107;-69
2022/06/25 04:38:16;;;;;;;12.75;11.45;;;16.70;99.90;;;;;;5137374;27;20142;-68
2022/06/25 04:40:43;;;;;;;15.20;12.32;;;16.80;99.90;;;;;;5117963;27;20066;-70
2022/06/25 04:43:11;;;;;;;15.13;12.48;;;16.80;99.90;;;;;;5137470;27;20456;-68
2022/06/25 04:45:38;;;;;;;15.48;11.85;;;16.80;99.90;;;;;;5137946;27;20053;-69
2022/06/25 04:48:05;;;;;;;13.57;11.05;;;17.30;99.90;;;;;;5138857;27;20502;-68
2022/06/25 04:50:32;;;;;;;13.18;11.77;;;16.90;99.90;;;;;;5155936;27;20046;-69
2022/06/25 04:52:59;;;;;;;15.60;12.23;;;17.00;99.90;;;;;;5139227;27;20099;-68
2022/06/25 04:55:26;;;;;;;12.15;10.90;;;17.00;99.90;;;;;;5156327;27;20521;-69
2022/06/25 04:57:53;;;;;;;13.55;11.95;;;17.00;99.90;;;;;;5156500;27;20046;-69
2022/06/25 05:00:21;;;;;;;13.25;11.27;;;17.00;99.90;;;;;;5157117;27;20051;-70
2022/06/25 05:02:48;;;;;;;13.93;11.38;;;17.10;99.90;;;;;;5138726;27;20047;-69
2022/06/25 05:05:15;;;;;;;13.32;11.68;;;17.20;99.90;;;;;;5151996;27;20050;-70
2022/06/25 05:07:42;;;;;;;11.90;10.52;;;17.30;99.90;;;;;;5136530;27;20054;-69
2022/06/25 05:10:09;;;;;;;13.73;10.70;;;17.50;99.90;;;;;;5136294;27;20095;-69
2022/06/25 05:15:22;;;;;;;11.20;10.02;;;17.60;99.90;;;;;;5138743;27;20512;-69
2022/06/25 05:17:49;;;;;;;10.60;9.50;;;17.70;99.90;;;;;;5138275;27;20094;-69
2022/06/25 05:20:16;;;;;;;10.95;9.75;;;17.80;99.90;;;;;;5138468;27;20050;-69
2022/06/25 05:22:43;;;;;;;11.80;9.25;;;18.00;99.90;;;;;;5138027;27;20099;-67
2022/06/25 05:25:10;;;;;;;13.95;9.60;;;18.10;99.90;;;;;;5150920;27;20054;-69
2022/06/25 05:27:37;;;;;;;10.35;9.25;;;18.20;99.90;;;;;;5135968;27;20498;-68
2022/06/25 05:30:05;;;;;;;11.30;9.15;;;18.30;99.90;;;;;;5116598;27;20100;-69
2022/06/25 05:32:33;;;;;;;14.65;8.93;;;18.40;99.90;;;;;;5118061;27;20058;-69
2022/06/25 05:35:00;;;;;;;10.30;8.90;;;18.60;99.90;;;;;;5117306;27;20051;-69
2022/06/25 05:37:27;;;;;;;11.23;8.95;;;18.70;99.90;;;;;;5117685;27;20096;-70
2022/06/25 05:39:54;;;;;;;9.65;8.43;;;18.80;99.90;;;;;;5124200;27;20070;-71
2022/06/25 05:42:21;;;;;;;9.35;7.47;;;18.90;99.90;;;;;;5119711;27;20047;-70
2022/06/25 05:44:48;;;;;;;9.63;8.18;;;19.10;99.90;;;;;;5140294;27;20043;-72
2022/06/25 05:47:15;;;;;;;9.63;7.78;;;19.30;99.90;;;;;;5153419;27;20437;-71
2022/06/25 05:49:46;;;;;;;10.85;7.90;;;19.30;99.90;;;;;;5130713;27;20300;-71
2022/06/25 05:52:14;;;;;;;10.27;8.30;;;19.40;99.90;;;;;;5130425;27;20051;-71
2022/06/25 05:54:41;;;;;;;8.50;7.47;;;19.50;99.90;;;;;;5151903;27;20050;-71
2022/06/25 05:57:08;;;;;;;6.95;6.22;;;19.60;99.90;;;;;;5130442;27;20051;-71
2022/06/25 05:59:35;;;;;;;8.38;7.57;;;19.80;99.90;;;;;;5153668;27;20042;-71
2022/06/25 06:02:02;;;;;;;11.38;7.25;;;20.00;99.90;;;;;;5128921;27;20047;-70
2022/06/25 06:04:29;;;;;;;7.43;6.60;;;20.10;99.90;;;;;;5145695;27;20054;-71
2022/06/25 06:06:59;;;;;;;8.77;7.18;;;20.30;99.90;;;;;;5129458;27;20039;-70
2022/06/25 06:09:27;;;;;;;10.10;6.95;;;20.40;99.90;;;;;;5134923;27;20047;-71
2022/06/25 06:11:54;;;;;;;6.95;6.20;;;20.60;99.90;;;;;;5146591;27;20133;-71
2022/06/25 06:14:21;;;;;;;10.73;6.28;;;20.70;99.90;;;;;;5125805;27;20049;-70
2022/06/25 06:16:48;;;;;;;8.52;6.78;;;20.90;99.90;;;;;;5148820;27;20060;-71
2022/06/25 06:19:15;;;;;;;9.43;7.00;;;21.00;99.90;;;;;;5149048;27;20093;-70
2022/06/25 06:21:42;;;;;;;8.00;6.03;;;21.00;99.90;;;;;;5129729;27;20107;-72
2022/06/25 06:24:11;;;;;;;8.38;6.45;;;21.10;99.90;;;;;;5128742;27;20047;-71
2022/06/25 06:26:38;;;;;;;12.20;6.65;;;21.20;99.90;;;;;;5127394;27;20056;-71
2022/06/25 06:29:05;;;;;;;11.95;6.50;;;21.30;99.90;;;;;;5129563;27;20104;-70
2022/06/25 06:31:32;;;;;;;8.60;6.07;;;21.40;99.90;;;;;;5131042;27;20047;-71
2022/06/25 06:33:59;;;;;;;10.55;6.70;;;21.60;99.90;;;;;;5148326;27;20058;-71
2022/06/25 06:36:26;;;;;;;10.52;5.70;;;21.80;99.90;;;;;;5145063;27;20444;-70
2022/06/25 06:38:53;;;;;;;7.40;6.43;;;22.00;99.90;;;;;;5128267;27;20084;-72
2022/06/25 06:41:21;;;;;;;7.25;6.05;;;22.00;99.90;;;;;;5148191;27;20399;-71
2022/06/25 06:43:48;;;;;;;8.27;5.72;;;22.10;99.90;;;;;;5145868;27;20049;-71
2022/06/25 06:46:15;;;;;;;10.18;5.53;;;22.20;99.90;;;;;;5133437;27;20102;-72
2022/06/25 06:48:42;;;;;;;6.20;5.60;;;22.20;99.90;;;;;;5129301;27;20051;-70
2022/06/25 06:51:09;;;;;;;7.50;5.60;;;22.30;99.90;;;;;;5129065;27;20062;-72
2022/06/25 06:53:36;;;;;;;7.30;5.82;;;22.60;99.90;;;;;;5129786;27;20050;-71
2022/06/25 06:56:03;;;;;;;8.65;5.28;;;22.80;99.90;;;;;;5126634;27;20058;-71
2022/06/25 06:58:32;;;;;;;6.68;5.97;;;23.00;99.90;;;;;;5126798;27;20088;-72
2022/06/25 07:00:59;;;;;;;9.77;5.50;;;23.20;99.90;;;;;;5150320;27;20419;-71
2022/06/25 07:03:25;;;;;;;8.23;5.22;;;23.40;99.90;;;;;;5146640;27;20043;-71
2022/06/25 07:05:52;;;;;;;7.80;4.88;;;23.50;99.90;;;;;;5127615;27;20047;-72
2022/06/25 07:08:19;;;;;;;7.55;4.32;;;23.60;99.90;;;;;;5129161;27;20050;-70
2022/06/25 07:10:46;;;;;;;6.13;4.68;;;23.60;99.90;;;;;;5145635;27;20087;-71
2022/06/25 07:13:13;;;;;;;6.15;4.65;;;23.80;99.90;;;;;;5147379;27;20094;-71
2022/06/25 07:15:41;;;;;;;6.50;4.78;;;23.90;99.90;;;;;;5124992;27;20043;-71
2022/06/25 07:18:08;;;;;;;5.00;4.10;;;24.20;99.90;;;;;;5146302;27;20087;-71
2022/06/25 07:20:36;;;;;;;6.20;4.75;;;24.30;99.90;;;;;;5129407;27;20460;-72
2022/06/25 07:23:03;;;;;;;6.53;3.92;;;24.60;99.90;;;;;;5127534;27;20135;-72
2022/06/25 07:25:30;;;;;;;5.68;3.88;;;25.00;99.90;;;;;;5126158;27;20486;-71
2022/06/25 07:27:57;;;;;;;5.93;3.83;;;25.40;99.90;;;;;;5129749;27;20091;-73
2022/06/25 07:30:25;;;;;;;7.45;3.85;;;25.60;99.90;;;;;;5126981;27;20043;-72
2022/06/25 07:32:53;;;;;;;7.55;4.38;;;25.70;99.90;;;;;;5149862;27;20046;-72
2022/06/25 07:35:20;;;;;;;5.35;3.85;;;25.60;99.90;;;;;;5126693;27;20096;-72
2022/06/25 07:37:46;;;;;;;5.32;3.38;;;25.60;99.90;;;;;;5146246;27;20047;-72
2022/06/25 07:40:13;;;;;;;7.07;3.67;;;25.70;99.90;;;;;;5128995;27;20053;-71
2022/06/25 07:42:40;;;;;;;5.18;3.60;;;25.90;99.90;;;;;;5129894;27;20086;-72
2022/06/25 07:45:08;;;;;;;5.13;3.67;;;26.10;99.90;;;;;;5145354;27;20528;-73
2022/06/25 07:47:38;;;;;;;6.53;3.40;;;26.10;99.90;;;;;;5152101;27;20042;-73
2022/06/25 07:52:53;;;;;;;5.13;2.90;;;26.40;99.90;;;;;;5125091;27;20078;-73
2022/06/25 07:55:20;;;;;;;6.38;3.53;;;26.50;99.90;;;;;;5129540;27;20055;-72
2022/06/25 07:57:47;;;;;;;7.20;3.05;;;26.50;99.90;;;;;;5147339;27;20051;-73
2022/06/25 08:00:15;;;;;;;3.75;2.65;;;26.70;99.90;;;;;;5147187;27;20045;-73
2022/06/25 08:02:42;;;;;;;5.80;3.08;;;26.70;99.90;;;;;;5149154;27;20050;-72
2022/06/25 08:05:10;;;;;;;6.65;3.17;;;27.00;99.90;;;;;;5129367;27;20050;-72
2022/06/25 08:07:37;;;;;;;3.88;2.47;;;27.30;99.90;;;;;;5127604;27;20395;-69
2022/06/25 08:10:04;;;;;;;5.22;3.15;;;27.40;99.90;;;;;;5149715;27;20046;-71
2022/06/25 08:12:31;;;;;;;4.47;2.97;;;27.30;99.90;;;;;;5128904;27;20393;-73
2022/06/25 08:14:59;;;;;;;4.45;2.63;;;27.30;99.90;;;;;;5126737;27;20047;-73
2022/06/25 08:17:26;;;;;;;5.90;2.22;;;27.50;99.90;;;;;;5129223;27;20047;-72
2022/06/25 08:19:53;;;;;;;4.40;2.17;;;27.60;99.90;;;;;;5144355;27;20082;-73
2022/06/25 08:22:21;;;;;;;4.32;1.90;;;27.70;99.60;;;;;;5146161;27;20057;-72
2022/06/25 08:24:48;;;;;;;5.70;1.80;;;27.70;98.80;;;;;;5129075;27;20050;-72
2022/06/25 08:27:15;;;;;;;3.90;1.88;;;27.80;99.30;;;;;;5128153;27;20047;-72
2022/06/25 08:29:42;;;;;;;2.83;1.63;;;27.70;98.80;;;;;;5146432;27;20038;-72
2022/06/25 08:32:09;;;;;;;5.43;1.90;;;27.90;98.90;;;;;;5128593;27;20042;-72
2022/06/25 08:34:36;;;;;;;5.40;1.80;;;27.80;98.80;;;;;;5145043;27;20055;-72
2022/06/25 08:37:04;;;;;;;3.08;1.75;;;27.80;97.00;;;;;;5130103;27;20059;-71
2022/06/25 08:39:33;;;;;;;4.47;2.20;;;27.60;97.50;;;;;;5128401;27;20133;-71
2022/06/25 08:42:02;;;;;;;3.10;2.10;;;27.80;97.70;;;;;;5131319;27;20055;-73
2022/06/25 08:44:31;;;;;;;3.23;1.90;;;27.60;97.80;;;;;;5145589;27;20755;-72
2022/06/25 08:46:58;;;;;;;4.70;2.30;;;27.30;97.80;;;;;;5124680;27;20047;-72
2022/06/25 08:49:26;;;;;;;6.63;2.28;;;26.70;97.60;;;;;;5127014;27;20046;-71
2022/06/25 08:51:54;;;;;;;4.00;2.15;;;26.50;98.00;;;;;;5138944;27;20078;-70
2022/06/25 08:54:21;;;;;;;5.70;2.00;;;26.30;98.50;;;;;;5128045;27;20046;-69
2022/06/25 08:56:50;;;;;;;4.82;1.90;;;26.20;98.50;;;;;;5126541;27;20100;-72
2022/06/25 08:59:17;;;;;;;4.13;2.10;;;26.40;98.50;;;;;;5127614;27;20042;-72
2022/06/25 09:01:44;;;;;;;3.22;1.98;;;26.90;98.60;;;;;;5149694;27;20047;-73
2022/06/25 09:04:11;;;;;;;6.10;2.28;;;27.30;97.60;;;;;;5129704;27;20042;-71
2022/06/25 09:06:38;;;;;;;5.32;2.67;;;27.50;96.80;;;;;;5134545;27;20054;-72
2022/06/25 09:09:10;;;;;;;4.28;2.03;;;27.90;96.20;;;;;;5130052;27;20058;-73
2022/06/25 09:11:57;;;;;;;4.35;2.30;;;28.10;95.80;;;;;;5149996;27;20042;-72
2022/06/25 09:14:27;;;;;;;6.53;2.42;;;28.10;94.80;;;;;;5128862;27;20479;-71
2022/06/25 09:16:58;;;;;;;;;;;27.90;95.80;;;;;;5131789;27;20058;-71
2022/06/25 09:19:30;;;;;;;4.05;2.05;;;27.70;95.10;;;;;;5146206;27;20370;-71
2022/06/25 09:21:57;;;;;;;5.03;2.22;;;27.60;96.00;;;;;;5119584;27;20493;-71
2022/06/25 09:24:24;;;;;;;4.50;2.10;;;27.70;95.90;;;;;;5121149;27;20501;-71
2022/06/25 09:26:52;;;;;;;6.15;2.00;;;27.60;95.80;;;;;;5148649;27;20486;-72
2022/06/25 09:29:20;;;;;;;4.82;2.08;;;27.50;95.60;;;;;;5147570;27;20043;-71
2022/06/25 09:31:47;;;;;;;4.60;2.38;;;27.90;95.20;;;;;;5133193;27;20055;-72
2022/06/25 09:34:14;;;;;;;3.75;1.75;;;28.20;95.10;;;;;;5128207;27;20042;-71
2022/06/25 09:36:41;;;;;;;5.00;1.77;;;28.30;94.40;;;;;;5148552;27;20051;-71
2022/06/25 09:39:08;;;;;;;13.80;2.08;;;28.20;93.90;;;;;;5128386;27;20074;-71
2022/06/25 09:41:53;;;;;;;3.35;1.45;;;28.30;93.70;;;;;;5153099;27;20462;-72
2022/06/25 09:44:22;;;;;;;2.47;1.55;;;28.50;93.20;;;;;;5129729;27;20051;-70
2022/06/25 09:46:56;;;;;;;2.42;1.30;;;28.80;93.20;;;;;;5129570;27;20477;-71
2022/06/25 09:49:24;;;;;;;2.38;1.48;;;29.00;91.90;;;;;;5127130;27;20043;-71
2022/06/25 09:51:59;;;;;;;4.40;1.60;;;29.30;92.10;;;;;;5148964;27;20053;-71
2022/06/25 09:54:26;;;;;;;3.33;1.60;;;29.00;90.90;;;;;;5144628;27;20050;-72
2022/06/25 09:56:55;;;;;;;8.82;1.75;;;28.90;91.80;;;;;;5130900;27;20130;-72
2022/06/25 09:59:25;;;;;;;3.92;1.85;;;28.60;92.20;;;;;;5147540;27;20085;-72
2022/06/25 10:01:52;;;;;;;7.88;1.67;;;28.40;92.10;;;;;;5132499;27;20134;-72
2022/06/25 10:04:20;;;;;;;4.72;1.75;;;28.20;92.20;;;;;;5129829;27;20057;-71
2022/06/25 10:06:49;;;;;;;4.90;1.50;;;28.20;92.00;;;;;;5146266;27;20058;-71
2022/06/25 10:09:18;;;;;;;3.78;1.50;;;28.20;92.30;;;;;;5145557;27;20053;-71
2022/06/25 10:11:45;;;;;;;2.58;1.60;;;28.00;92.60;;;;;;5144763;27;20046;-71
2022/06/25 10:14:13;;;;;;;2.50;1.40;;;27.80;92.80;;;;;;5148238;27;20046;-71
2022/06/25 10:16:42;;;;;;;3.25;1.48;;;27.70;92.50;;;;;;5144124;27;20043;-71
2022/06/25 10:19:11;;;;;;;2.85;1.60;;;27.70;92.30;;;;;;5144825;27;20053;-72
2022/06/25 10:21:38;;;;;;;5.17;2.03;;;27.60;92.50;;;;;;5130961;27;20406;-72
2022/06/25 10:24:06;;;;;;;5.40;1.38;;;27.20;92.70;;;;;;5146592;27;20046;-71
2022/06/25 10:26:34;;;;;;;3.13;1.35;;;26.90;93.10;;;;;;5150984;27;20047;-71
2022/06/25 10:29:03;;;;;;;3.38;1.77;;;26.70;93.50;;;;;;5128900;27;20537;-71
2022/06/25 10:31:31;;;;;;;3.57;1.67;;;26.90;93.70;;;;;;5147414;27;20043;-72
2022/06/25 10:34:02;;;;;;;3.75;1.70;;;27.10;93.80;;;;;;5132185;27;20054;-72
2022/06/25 10:36:43;;;;;;;6.78;1.73;;;27.30;93.50;;;;;;5145660;27;20134;-71
2022/06/25 10:39:44;;;;;;;5.13;1.58;;;27.60;93.20;;;;;;5125086;27;20058;-71
2022/06/25 10:45:46;;;;;;;3.88;1.40;;;26.80;93.40;;;;;;5044259;28;20072;-70
2022/06/25 10:48:14;;;;;;;3.88;1.70;;;26.40;94.20;;;;;;5145750;27;20408;-70
2022/06/25 10:50:48;;;;;;;5.32;1.90;;;26.10;94.60;;;;;;5154508;27;20122;-71
2022/06/25 10:53:28;;;;;;;3.17;1.40;;;25.80;95.00;;;;;;5136635;27;20450;-71
2022/06/25 10:56:01;;;;;;;3.17;1.65;;;25.50;95.70;;;;;;5155433;27;20050;-70
2022/06/25 10:58:41;;;;;;;8.20;1.73;;;25.30;96.50;;;;;;5137261;27;20055;-70
2022/06/25 11:01:19;;;;;;;3.60;1.90;;;25.00;97.00;;;;;;5136457;27;20125;-71
2022/06/25 11:03:46;;;;;;;3.25;1.70;;;24.70;98.30;;;;;;5136594;27;20406;-71
2022/06/25 11:06:22;;;;;;;4.93;1.83;;;24.50;98.30;;;;;;5155044;27;20046;-70
2022/06/25 11:08:50;;;;;;;4.68;1.80;;;24.30;98.50;;;;;;5136364;27;20058;-70
2022/06/25 11:11:27;;;;;;;3.92;1.77;;;24.10;99.00;;;;;;5136568;27;20049;-71
2022/06/25 11:13:55;;;;;;;3.10;1.55;;;24.00;99.80;;;;;;5136257;27;20061;-70
2022/06/25 11:16:22;;;;;;;3.13;1.60;;;23.80;99.80;;;;;;5136844;27;20050;-70
2022/06/25 11:18:50;;;;;;;7.90;2.03;;;23.60;99.90;;;;;;5136524;27;20046;-70
2022/06/25 11:21:35;;;;;;;4.43;1.73;;;23.50;99.90;;;;;;5154598;27;20047;-69
2022/06/25 11:24:10;;;;;;;3.75;1.58;;;23.40;99.90;;;;;;5154852;27;20521;-71
2022/06/25 11:29:24;;;;;;;2.75;1.70;;;23.20;99.90;;;;;;5136118;27;20562;-69
2022/06/25 11:31:52;;;;;;;4.38;1.50;;;23.20;99.90;;;;;;5136412;27;20053;-71
2022/06/25 11:34:21;;;;;;;5.43;2.22;;;23.40;99.90;;;;;;5136538;27;20108;-70
2022/06/25 11:37:02;;;;;;;5.20;1.90;;;23.90;99.90;;;;;;5154304;27;20051;-71
2022/06/25 11:39:29;;;;;;;3.05;1.58;;;24.20;99.90;;;;;;5136274;27;20054;-71
2022/06/25 11:41:57;;;;;;;4.20;1.40;;;24.50;99.90;;;;;;5136057;27;20482;-71
2022/06/25 11:44:24;;;;;;;3.70;1.27;;;25.20;99.90;;;;;;5155086;27;20051;-71
2022/06/25 11:46:52;;;;;;;2.72;1.33;;;26.00;99.90;;;;;;5135943;27;20050;-71
2022/06/25 11:49:21;;;;;;;3.50;1.40;;;26.60;99.20;;;;;;5141939;27;20414;-71
2022/06/25 11:51:50;;;;;;;3.70;1.20;;;26.90;97.90;;;;;;5115748;28;20138;-71
2022/06/25 11:54:25;;;;;;;2.25;1.20;;;27.00;96.80;;;;;;5115618;28;20051;-70
2022/06/25 11:56:55;;;;;;;2.65;0.90;;;27.10;95.50;;;;;;5115345;28;20047;-71
2022/06/25 11:59:30;;;;;;;4.82;1.20;;;27.20;96.10;;;;;;5115219;28;20067;-70
2022/06/25 12:01:58;;;;;;;11.93;1.70;;;27.00;95.30;;;;;;5137911;27;20038;-71
2022/06/25 12:04:26;;;;;;;2.35;1.20;;;26.80;95.70;;;;;;5130424;28;20124;-70
2022/06/25 12:06:53;;;;;;;2.35;1.10;;;26.70;95.60;;;;;;5115176;28;20445;-70
2022/06/25 12:09:23;;;;;;;2.25;1.27;;;26.40;95.60;;;;;;5133966;27;20043;-70
2022/06/25 12:11:53;;;;;;;;;;;26.20;95.80;;;;;;5128874;27;20047;-69
2022/06/25 12:14:21;;;;;;;1.77;0.93;;;25.80;96.30;;;;;;5135757;27;19919;-71
2022/06/25 12:16:49;;;;;;;2.90;1.50;;;25.50;96.40;;;;;;5154416;27;20051;-69
2022/06/25 12:19:16;;;;;;;2.47;1.48;;;25.20;96.70;;;;;;5135314;27;20051;-71
2022/06/25 12:21:43;;;;;;;3.45;1.95;;;24.90;97.50;;;;;;5133301;28;20084;-70
2022/06/25 12:24:13;;;;;;;3.25;1.65;;;24.70;98.50;;;;;;5132987;28;20043;-70
2022/06/25 12:26:43;;;;;;;9.07;1.65;;;24.50;99.90;;;;;;5115346;28;20092;-70
2022/06/25 12:29:12;;;;;;;;;;;24.20;99.90;;;;;;5133327;28;20050;-70
2022/06/25 12:31:39;;;;;;;4.32;2.40;;;23.90;99.90;;;;;;5132621;28;19931;-71
2022/06/25 12:34:07;;;;;;;4.15;2.10;;;23.30;99.90;;;;;;5134913;27;20100;-71
2022/06/25 12:36:39;;;;;;;8.93;2.50;;;22.80;99.90;;;;;;5125244;27;20410;-70
2022/06/25 12:39:29;;;;;;;5.78;2.45;;;22.40;99.90;;;;;;5150105;27;20154;-70
2022/06/25 12:42:02;;;;;;;4.57;2.72;;;22.00;99.90;;;;;;5152795;27;20490;-69
2022/06/25 12:44:32;;;;;;;9.35;2.60;;;21.70;99.90;;;;;;5134125;27;20535;-70
2022/06/25 12:47:01;;;;;;;5.97;2.55;;;21.50;99.90;;;;;;5132667;27;20047;-70
2022/06/25 12:49:39;;;;;;;5.68;2.85;;;21.50;99.90;;;;;;5136285;27;20094;-69
2022/06/25 12:52:06;;;;;;;3.97;2.67;;;21.40;99.90;;;;;;5152631;27;20039;-69
2022/06/25 12:54:40;;;;;;;10.02;3.40;;;21.40;99.90;;;;;;5133895;27;20451;-70
2022/06/25 12:57:09;;;;;;;5.18;2.85;;;21.50;99.90;;;;;;5149473;27;20046;-70
2022/06/25 12:59:36;;;;;;;4.20;3.08;;;21.60;99.90;;;;;;5132644;27;20047;-71
2022/06/25 13:02:03;;;;;;;8.00;3.28;;;21.60;99.90;;;;;;5134224;27;20054;-70
2022/06/25 13:04:30;;;;;;;6.93;3.13;;;21.60;99.90;;;;;;5149643;27;20440;-70
2022/06/25 13:06:56;;;;;;;5.72;2.90;;;21.60;99.90;;;;;;5149250;27;20100;-69